sensor_id;sensor_type;location;lat;lon;timestamp;P1;durP1;ratioP1;P2;durP2;ratioP2
10063;SDS011;5071;52.360;13.134;2023-03-01T00:00:28;8.47;;;3.67;;
10063;SDS011;5071;52.360;13.134;2023-03-01T00:05:30;4.77;;;3.57;;
10063;SDS011;5071;52.360;13.134;2023-03-01T00:10:32;6.03;;;3.27;;
10063;SDS011;5071;52.360;13.134;2023-03-01T00:15:38;7.67;;;4.23;;
10063;SDS011;5071;52.360;13.134;2023-03-01T00:20:41;8.23;;;3.63;;
10063;SDS011;5071;52.360;13.134;2023-03-01T00:25:43;7.73;;;4.53;;
10063;SDS011;5071;52.360;13.134;2023-03-01T00:30:46;6.57;;;4.07;;
10063;SDS011;5071;52.360;13.134;2023-03-01T00:35:49;11.70;;;3.87;;
10063;SDS011;5071;52.360;13.134;2023-03-01T00:40:51;6.73;;;4.07;;
10063;SDS011;5071;52.360;13.134;2023-03-01T00:45:55;7.27;;;3.50;;
10063;SDS011;5071;52.360;13.134;2023-03-01T00:51:03;5.43;;;4.03;;
10063;SDS011;5071;52.360;13.134;2023-03-01T00:56:06;7.23;;;3.73;;
10063;SDS011;5071;52.360;13.134;2023-03-01T01:01:12;6.43;;;4.60;;
10063;SDS011;5071;52.360;13.134;2023-03-01T01:06:16;5.80;;;3.80;;
10063;SDS011;5071;52.360;13.134;2023-03-01T01:11:19;9.33;;;4.20;;
10063;SDS011;5071;52.360;13.134;2023-03-01T01:16:25;5.63;;;3.20;;
10063;SDS011;5071;52.360;13.134;2023-03-01T01:21:29;8.10;;;4.40;;
10063;SDS011;5071;52.360;13.134;2023-03-01T01:26:32;8.17;;;3.93;;
10063;SDS011;5071;52.360;13.134;2023-03-01T01:31:37;4.60;;;3.80;;
10063;SDS011;5071;52.360;13.134;2023-03-01T01:36:41;6.17;;;4.23;;
10063;SDS011;5071;52.360;13.134;2023-03-01T01:41:43;6.57;;;3.80;;
10063;SDS011;5071;52.360;13.134;2023-03-01T01:46:49;9.23;;;4.70;;
10063;SDS011;5071;52.360;13.134;2023-03-01T01:51:55;4.70;;;3.37;;
10063;SDS011;5071;52.360;13.134;2023-03-01T01:57:03;8.70;;;3.97;;
10063;SDS011;5071;52.360;13.134;2023-03-01T02:02:09;8.70;;;3.87;;
10063;SDS011;5071;52.360;13.134;2023-03-01T02:07:14;6.90;;;3.93;;
10063;SDS011;5071;52.360;13.134;2023-03-01T02:12:18;7.93;;;3.93;;
10063;SDS011;5071;52.360;13.134;2023-03-01T02:17:25;5.70;;;3.63;;
10063;SDS011;5071;52.360;13.134;2023-03-01T02:22:28;8.00;;;3.67;;
10063;SDS011;5071;52.360;13.134;2023-03-01T02:27:36;5.17;;;3.27;;
10063;SDS011;5071;52.360;13.134;2023-03-01T02:32:46;7.27;;;4.10;;
10063;SDS011;5071;52.360;13.134;2023-03-01T02:37:50;6.17;;;4.07;;
10063;SDS011;5071;52.360;13.134;2023-03-01T02:42:53;5.47;;;3.90;;
10063;SDS011;5071;52.360;13.134;2023-03-01T02:48:00;8.53;;;4.00;;
10063;SDS011;5071;52.360;13.134;2023-03-01T02:53:04;5.97;;;3.60;;
10063;SDS011;5071;52.360;13.134;2023-03-01T02:58:12;7.20;;;4.30;;
10063;SDS011;5071;52.360;13.134;2023-03-01T03:03:17;7.17;;;4.07;;
10063;SDS011;5071;52.360;13.134;2023-03-01T03:08:22;5.67;;;3.53;;
10063;SDS011;5071;52.360;13.134;2023-03-01T03:13:24;8.63;;;4.70;;
10063;SDS011;5071;52.360;13.134;2023-03-01T03:18:27;8.03;;;4.27;;
10063;SDS011;5071;52.360;13.134;2023-03-01T03:23:29;6.47;;;3.77;;
10063;SDS011;5071;52.360;13.134;2023-03-01T03:28:31;8.57;;;3.80;;
10063;SDS011;5071;52.360;13.134;2023-03-01T03:33:35;5.73;;;3.97;;
10063;SDS011;5071;52.360;13.134;2023-03-01T03:38:38;5.70;;;3.93;;
10063;SDS011;5071;52.360;13.134;2023-03-01T03:43:40;9.43;;;4.20;;
10063;SDS011;5071;52.360;13.134;2023-03-01T03:48:45;5.93;;;3.57;;
10063;SDS011;5071;52.360;13.134;2023-03-01T03:53:47;6.77;;;3.90;;
10063;SDS011;5071;52.360;13.134;2023-03-01T03:58:52;6.97;;;3.57;;
10063;SDS011;5071;52.360;13.134;2023-03-01T04:03:55;4.23;;;2.87;;
10063;SDS011;5071;52.360;13.134;2023-03-01T04:08:57;7.20;;;4.23;;
10063;SDS011;5071;52.360;13.134;2023-03-01T04:13:59;9.33;;;3.83;;
10063;SDS011;5071;52.360;13.134;2023-03-01T04:19:03;8.27;;;3.93;;
10063;SDS011;5071;52.360;13.134;2023-03-01T04:24:05;8.57;;;3.53;;
10063;SDS011;5071;52.360;13.134;2023-03-01T04:29:08;5.17;;;3.50;;
10063;SDS011;5071;52.360;13.134;2023-03-01T04:34:11;6.40;;;4.03;;
10063;SDS011;5071;52.360;13.134;2023-03-01T04:39:13;8.40;;;4.17;;
10063;SDS011;5071;52.360;13.134;2023-03-01T04:44:16;5.77;;;3.77;;
10063;SDS011;5071;52.360;13.134;2023-03-01T04:49:19;4.17;;;3.30;;
10063;SDS011;5071;52.360;13.134;2023-03-01T04:54:21;8.13;;;3.67;;
10063;SDS011;5071;52.360;13.134;2023-03-01T04:59:23;7.23;;;4.10;;
10063;SDS011;5071;52.360;13.134;2023-03-01T05:04:30;5.30;;;3.30;;
10063;SDS011;5071;52.360;13.134;2023-03-01T05:09:32;7.83;;;3.67;;
10063;SDS011;5071;52.360;13.134;2023-03-01T05:14:35;10.17;;;3.77;;
10063;SDS011;5071;52.360;13.134;2023-03-01T05:19:38;4.20;;;2.97;;
10063;SDS011;5071;52.360;13.134;2023-03-01T05:24:40;7.90;;;4.10;;
10063;SDS011;5071;52.360;13.134;2023-03-01T05:29:42;8.10;;;4.00;;
10063;SDS011;5071;52.360;13.134;2023-03-01T05:34:45;8.60;;;4.13;;
10063;SDS011;5071;52.360;13.134;2023-03-01T05:39:47;6.03;;;3.90;;
10063;SDS011;5071;52.360;13.134;2023-03-01T05:44:51;5.93;;;3.37;;
10063;SDS011;5071;52.360;13.134;2023-03-01T05:49:55;9.07;;;4.63;;
10063;SDS011;5071;52.360;13.134;2023-03-01T05:54:57;9.43;;;4.00;;
10063;SDS011;5071;52.360;13.134;2023-03-01T05:59:59;4.60;;;3.23;;
10063;SDS011;5071;52.360;13.134;2023-03-01T06:05:03;5.83;;;3.37;;
10063;SDS011;5071;52.360;13.134;2023-03-01T06:10:06;8.80;;;4.13;;
10063;SDS011;5071;52.360;13.134;2023-03-01T06:15:10;5.70;;;3.90;;
10063;SDS011;5071;52.360;13.134;2023-03-01T06:20:16;8.57;;;4.30;;
10063;SDS011;5071;52.360;13.134;2023-03-01T06:25:21;6.47;;;3.40;;
10063;SDS011;5071;52.360;13.134;2023-03-01T06:30:25;6.40;;;4.13;;
10063;SDS011;5071;52.360;13.134;2023-03-01T06:35:29;5.87;;;3.87;;
10063;SDS011;5071;52.360;13.134;2023-03-01T06:40:32;9.97;;;4.70;;
10063;SDS011;5071;52.360;13.134;2023-03-01T06:45:35;5.67;;;3.70;;
10063;SDS011;5071;52.360;13.134;2023-03-01T06:50:39;9.77;;;4.10;;
10063;SDS011;5071;52.360;13.134;2023-03-01T06:55:41;7.50;;;5.13;;
10063;SDS011;5071;52.360;13.134;2023-03-01T07:00:44;10.23;;;5.33;;
10063;SDS011;5071;52.360;13.134;2023-03-01T07:05:49;9.20;;;4.70;;
10063;SDS011;5071;52.360;13.134;2023-03-01T07:10:54;9.00;;;5.10;;
10063;SDS011;5071;52.360;13.134;2023-03-01T07:15:57;8.50;;;5.27;;
10063;SDS011;5071;52.360;13.134;2023-03-01T07:21:04;9.37;;;5.97;;
10063;SDS011;5071;52.360;13.134;2023-03-01T07:26:07;11.63;;;6.63;;
10063;SDS011;5071;52.360;13.134;2023-03-01T07:31:09;12.73;;;6.60;;
10063;SDS011;5071;52.360;13.134;2023-03-01T07:36:12;10.73;;;6.00;;
10063;SDS011;5071;52.360;13.134;2023-03-01T07:41:15;9.83;;;5.47;;
10063;SDS011;5071;52.360;13.134;2023-03-01T07:46:17;13.90;;;6.27;;
10063;SDS011;5071;52.360;13.134;2023-03-01T07:51:21;11.00;;;6.20;;
10063;SDS011;5071;52.360;13.134;2023-03-01T07:56:22;8.93;;;5.83;;
10063;SDS011;5071;52.360;13.134;2023-03-01T08:01:25;11.97;;;6.60;;
10063;SDS011;5071;52.360;13.134;2023-03-01T08:06:28;11.67;;;6.20;;
10063;SDS011;5071;52.360;13.134;2023-03-01T08:11:31;10.23;;;6.27;;
10063;SDS011;5071;52.360;13.134;2023-03-01T08:16:33;9.97;;;6.33;;
10063;SDS011;5071;52.360;13.134;2023-03-01T08:21:38;12.23;;;6.97;;
10063;SDS011;5071;52.360;13.134;2023-03-01T08:26:42;10.43;;;6.17;;
10063;SDS011;5071;52.360;13.134;2023-03-01T08:31:44;11.13;;;6.40;;
10063;SDS011;5071;52.360;13.134;2023-03-01T08:36:47;14.13;;;6.43;;
10063;SDS011;5071;52.360;13.134;2023-03-01T08:41:49;12.63;;;7.40;;
10063;SDS011;5071;52.360;13.134;2023-03-01T08:46:53;10.53;;;5.70;;
10063;SDS011;5071;52.360;13.134;2023-03-01T08:51:57;7.17;;;4.83;;
10063;SDS011;5071;52.360;13.134;2023-03-01T08:57:01;10.03;;;4.70;;
10063;SDS011;5071;52.360;13.134;2023-03-01T09:02:05;5.50;;;3.63;;
10063;SDS011;5071;52.360;13.134;2023-03-01T09:07:14;9.57;;;4.90;;
10063;SDS011;5071;52.360;13.134;2023-03-01T09:12:16;5.97;;;4.07;;
10063;SDS011;5071;52.360;13.134;2023-03-01T09:17:18;5.17;;;4.20;;
10063;SDS011;5071;52.360;13.134;2023-03-01T09:22:22;8.03;;;3.90;;
10063;SDS011;5071;52.360;13.134;2023-03-01T09:27:24;10.60;;;4.07;;
10063;SDS011;5071;52.360;13.134;2023-03-01T09:32:29;5.70;;;4.33;;
10063;SDS011;5071;52.360;13.134;2023-03-01T09:37:33;7.63;;;3.67;;
10063;SDS011;5071;52.360;13.134;2023-03-01T09:42:36;6.80;;;3.80;;
10063;SDS011;5071;52.360;13.134;2023-03-01T09:47:51;5.03;;;3.00;;
10063;SDS011;5071;52.360;13.134;2023-03-01T09:52:59;3.83;;;2.63;;
10063;SDS011;5071;52.360;13.134;2023-03-01T09:58:11;4.53;;;2.80;;
10063;SDS011;5071;52.360;13.134;2023-03-01T10:03:35;4.67;;;2.63;;
10063;SDS011;5071;52.360;13.134;2023-03-01T10:08:46;4.27;;;2.90;;
10063;SDS011;5071;52.360;13.134;2023-03-01T10:13:58;6.47;;;3.23;;
10063;SDS011;5071;52.360;13.134;2023-03-01T10:19:03;4.40;;;2.43;;
10063;SDS011;5071;52.360;13.134;2023-03-01T10:24:10;4.20;;;2.17;;
10063;SDS011;5071;52.360;13.134;2023-03-01T10:29:18;3.97;;;2.03;;
10063;SDS011;5071;52.360;13.134;2023-03-01T10:34:27;3.17;;;2.00;;
10063;SDS011;5071;52.360;13.134;2023-03-01T10:39:34;3.40;;;1.93;;
10063;SDS011;5071;52.360;13.134;2023-03-01T10:44:38;2.10;;;1.67;;
10063;SDS011;5071;52.360;13.134;2023-03-01T10:49:52;3.43;;;2.03;;
10063;SDS011;5071;52.360;13.134;2023-03-01T10:55:01;3.73;;;1.80;;
10063;SDS011;5071;52.360;13.134;2023-03-01T11:00:16;5.07;;;2.33;;
10063;SDS011;5071;52.360;13.134;2023-03-01T11:05:23;2.73;;;1.60;;
10063;SDS011;5071;52.360;13.134;2023-03-01T11:10:28;2.83;;;1.97;;
10063;SDS011;5071;52.360;13.134;2023-03-01T11:15:32;2.13;;;1.90;;
10063;SDS011;5071;52.360;13.134;2023-03-01T11:20:37;2.37;;;2.00;;
10063;SDS011;5071;52.360;13.134;2023-03-01T11:25:42;5.00;;;2.20;;
10063;SDS011;5071;52.360;13.134;2023-03-01T11:30:47;2.23;;;1.83;;
10063;SDS011;5071;52.360;13.134;2023-03-01T11:36:10;3.83;;;2.57;;
10063;SDS011;5071;52.360;13.134;2023-03-01T11:41:26;4.17;;;1.90;;
10063;SDS011;5071;52.360;13.134;2023-03-01T11:52:16;5.90;;;2.60;;
10063;SDS011;5071;52.360;13.134;2023-03-01T11:57:36;8.63;;;2.40;;
10063;SDS011;5071;52.360;13.134;2023-03-01T12:08:33;4.40;;;2.50;;
10063;SDS011;5071;52.360;13.134;2023-03-01T12:19:27;3.80;;;2.07;;
10063;SDS011;5071;52.360;13.134;2023-03-01T12:30:21;4.97;;;1.90;;
10063;SDS011;5071;52.360;13.134;2023-03-01T12:41:21;3.30;;;2.43;;
10063;SDS011;5071;52.360;13.134;2023-03-01T12:46:37;3.87;;;2.87;;
10063;SDS011;5071;52.360;13.134;2023-03-01T12:51:51;4.17;;;2.70;;
10063;SDS011;5071;52.360;13.134;2023-03-01T12:57:00;4.60;;;2.70;;
10063;SDS011;5071;52.360;13.134;2023-03-01T13:02:15;5.73;;;3.00;;
10063;SDS011;5071;52.360;13.134;2023-03-01T13:07:27;4.60;;;2.43;;
10063;SDS011;5071;52.360;13.134;2023-03-01T13:12:49;5.23;;;2.73;;
10063;SDS011;5071;52.360;13.134;2023-03-01T13:17:58;4.53;;;2.63;;
10063;SDS011;5071;52.360;13.134;2023-03-01T13:23:04;4.07;;;2.63;;
10063;SDS011;5071;52.360;13.134;2023-03-01T13:33:43;5.30;;;2.40;;
10063;SDS011;5071;52.360;13.134;2023-03-01T13:38:54;5.13;;;1.97;;
10063;SDS011;5071;52.360;13.134;2023-03-01T13:43:58;5.23;;;2.90;;
10063;SDS011;5071;52.360;13.134;2023-03-01T13:49:00;4.47;;;1.83;;
10063;SDS011;5071;52.360;13.134;2023-03-01T13:54:04;4.03;;;1.90;;
10063;SDS011;5071;52.360;13.134;2023-03-01T13:59:12;4.50;;;2.00;;
10063;SDS011;5071;52.360;13.134;2023-03-01T14:04:18;2.30;;;1.80;;
10063;SDS011;5071;52.360;13.134;2023-03-01T14:09:24;3.43;;;1.80;;
10063;SDS011;5071;52.360;13.134;2023-03-01T14:14:31;4.10;;;1.63;;
10063;SDS011;5071;52.360;13.134;2023-03-01T14:19:47;3.00;;;1.73;;
10063;SDS011;5071;52.360;13.134;2023-03-01T14:24:57;3.00;;;1.90;;
10063;SDS011;5071;52.360;13.134;2023-03-01T14:30:03;2.77;;;1.70;;
10063;SDS011;5071;52.360;13.134;2023-03-01T14:35:19;3.33;;;1.93;;
10063;SDS011;5071;52.360;13.134;2023-03-01T14:40:25;4.13;;;1.83;;
10063;SDS011;5071;52.360;13.134;2023-03-01T14:45:29;3.07;;;2.03;;
10063;SDS011;5071;52.360;13.134;2023-03-01T14:50:32;2.67;;;1.63;;
10063;SDS011;5071;52.360;13.134;2023-03-01T14:55:38;3.10;;;2.00;;
10063;SDS011;5071;52.360;13.134;2023-03-01T15:00:45;5.63;;;1.90;;
10063;SDS011;5071;52.360;13.134;2023-03-01T15:05:51;3.73;;;1.93;;
10063;SDS011;5071;52.360;13.134;2023-03-01T15:11:03;2.67;;;1.60;;
10063;SDS011;5071;52.360;13.134;2023-03-01T15:16:09;3.23;;;1.90;;
10063;SDS011;5071;52.360;13.134;2023-03-01T15:21:15;3.47;;;2.20;;
10063;SDS011;5071;52.360;13.134;2023-03-01T15:26:25;2.87;;;1.87;;
10063;SDS011;5071;52.360;13.134;2023-03-01T15:31:32;4.00;;;2.27;;
10063;SDS011;5071;52.360;13.134;2023-03-01T15:36:39;3.27;;;1.67;;
10063;SDS011;5071;52.360;13.134;2023-03-01T15:41:47;2.97;;;1.90;;
10063;SDS011;5071;52.360;13.134;2023-03-01T15:46:49;3.47;;;1.90;;
10063;SDS011;5071;52.360;13.134;2023-03-01T15:51:52;2.03;;;1.50;;
10063;SDS011;5071;52.360;13.134;2023-03-01T15:56:57;3.50;;;1.60;;
10063;SDS011;5071;52.360;13.134;2023-03-01T16:01:59;2.27;;;1.63;;
10063;SDS011;5071;52.360;13.134;2023-03-01T16:07:01;2.20;;;1.27;;
10063;SDS011;5071;52.360;13.134;2023-03-01T16:12:09;3.33;;;1.60;;
10063;SDS011;5071;52.360;13.134;2023-03-01T16:17:16;3.47;;;1.93;;
10063;SDS011;5071;52.360;13.134;2023-03-01T16:22:19;2.93;;;1.40;;
10063;SDS011;5071;52.360;13.134;2023-03-01T16:27:22;2.77;;;1.87;;
10063;SDS011;5071;52.360;13.134;2023-03-01T16:32:23;3.60;;;1.93;;
10063;SDS011;5071;52.360;13.134;2023-03-01T16:37:25;2.60;;;1.60;;
10063;SDS011;5071;52.360;13.134;2023-03-01T16:42:29;4.43;;;1.93;;
10063;SDS011;5071;52.360;13.134;2023-03-01T16:47:35;2.33;;;1.77;;
10063;SDS011;5071;52.360;13.134;2023-03-01T16:52:37;3.13;;;1.53;;
10063;SDS011;5071;52.360;13.134;2023-03-01T16:57:41;5.43;;;1.70;;
10063;SDS011;5071;52.360;13.134;2023-03-01T17:02:43;3.83;;;1.83;;
10063;SDS011;5071;52.360;13.134;2023-03-01T17:07:45;3.53;;;2.00;;
10063;SDS011;5071;52.360;13.134;2023-03-01T17:12:49;2.47;;;1.67;;
10063;SDS011;5071;52.360;13.134;2023-03-01T17:17:51;2.30;;;1.23;;
10063;SDS011;5071;52.360;13.134;2023-03-01T17:22:53;2.37;;;1.37;;
10063;SDS011;5071;52.360;13.134;2023-03-01T17:27:56;5.57;;;1.53;;
10063;SDS011;5071;52.360;13.134;2023-03-01T17:32:59;3.30;;;1.57;;
10063;SDS011;5071;52.360;13.134;2023-03-01T17:38:01;3.17;;;1.23;;
10063;SDS011;5071;52.360;13.134;2023-03-01T17:43:11;2.57;;;1.20;;
10063;SDS011;5071;52.360;13.134;2023-03-01T17:48:14;3.17;;;1.50;;
10063;SDS011;5071;52.360;13.134;2023-03-01T17:53:16;2.73;;;1.43;;
10063;SDS011;5071;52.360;13.134;2023-03-01T17:58:20;2.73;;;1.47;;
10063;SDS011;5071;52.360;13.134;2023-03-01T18:03:22;2.27;;;1.33;;
10063;SDS011;5071;52.360;13.134;2023-03-01T18:08:24;3.77;;;1.50;;
10063;SDS011;5071;52.360;13.134;2023-03-01T18:13:33;1.93;;;1.33;;
10063;SDS011;5071;52.360;13.134;2023-03-01T18:18:36;3.30;;;1.73;;
10063;SDS011;5071;52.360;13.134;2023-03-01T18:23:38;3.47;;;1.90;;
10063;SDS011;5071;52.360;13.134;2023-03-01T18:28:42;2.87;;;2.27;;
10063;SDS011;5071;52.360;13.134;2023-03-01T18:33:45;2.27;;;1.90;;
10063;SDS011;5071;52.360;13.134;2023-03-01T18:38:47;3.57;;;1.90;;
10063;SDS011;5071;52.360;13.134;2023-03-01T18:43:51;3.50;;;1.93;;
10063;SDS011;5071;52.360;13.134;2023-03-01T18:48:57;3.73;;;1.93;;
10063;SDS011;5071;52.360;13.134;2023-03-01T18:53:59;5.17;;;2.10;;
10063;SDS011;5071;52.360;13.134;2023-03-01T18:59:04;4.87;;;2.10;;
10063;SDS011;5071;52.360;13.134;2023-03-01T19:04:09;3.03;;;1.90;;
10063;SDS011;5071;52.360;13.134;2023-03-01T19:09:12;5.67;;;2.47;;
10063;SDS011;5071;52.360;13.134;2023-03-01T19:14:17;4.50;;;2.23;;
10063;SDS011;5071;52.360;13.134;2023-03-01T19:19:19;5.57;;;2.33;;
10063;SDS011;5071;52.360;13.134;2023-03-01T19:24:21;7.27;;;2.20;;
10063;SDS011;5071;52.360;13.134;2023-03-01T19:29:24;4.23;;;2.60;;
10063;SDS011;5071;52.360;13.134;2023-03-01T19:34:27;3.93;;;2.00;;
10063;SDS011;5071;52.360;13.134;2023-03-01T19:39:30;3.50;;;2.23;;
10063;SDS011;5071;52.360;13.134;2023-03-01T19:44:34;5.70;;;2.57;;
10063;SDS011;5071;52.360;13.134;2023-03-01T19:49:36;4.27;;;2.00;;
10063;SDS011;5071;52.360;13.134;2023-03-01T19:54:41;4.83;;;2.70;;
10063;SDS011;5071;52.360;13.134;2023-03-01T19:59:45;10.43;;;3.03;;
10063;SDS011;5071;52.360;13.134;2023-03-01T20:04:48;4.67;;;2.57;;
10063;SDS011;5071;52.360;13.134;2023-03-01T20:09:51;5.63;;;3.27;;
10063;SDS011;5071;52.360;13.134;2023-03-01T20:14:55;8.73;;;2.90;;
10063;SDS011;5071;52.360;13.134;2023-03-01T20:19:58;7.50;;;2.90;;
10063;SDS011;5071;52.360;13.134;2023-03-01T20:25:00;5.07;;;2.53;;
10063;SDS011;5071;52.360;13.134;2023-03-01T20:30:05;6.20;;;2.53;;
10063;SDS011;5071;52.360;13.134;2023-03-01T20:35:08;5.27;;;2.73;;
10063;SDS011;5071;52.360;13.134;2023-03-01T20:40:11;10.30;;;3.47;;
10063;SDS011;5071;52.360;13.134;2023-03-01T20:45:15;5.43;;;3.20;;
10063;SDS011;5071;52.360;13.134;2023-03-01T20:50:18;5.73;;;3.03;;
10063;SDS011;5071;52.360;13.134;2023-03-01T20:55:19;7.53;;;3.80;;
10063;SDS011;5071;52.360;13.134;2023-03-01T21:00:23;8.33;;;3.30;;
10063;SDS011;5071;52.360;13.134;2023-03-01T21:05:26;6.53;;;2.73;;
10063;SDS011;5071;52.360;13.134;2023-03-01T21:10:28;5.47;;;2.73;;
10063;SDS011;5071;52.360;13.134;2023-03-01T21:15:32;5.27;;;2.23;;
10063;SDS011;5071;52.360;13.134;2023-03-01T21:20:35;4.87;;;3.10;;
10063;SDS011;5071;52.360;13.134;2023-03-01T21:25:37;7.23;;;2.90;;
10063;SDS011;5071;52.360;13.134;2023-03-01T21:30:40;6.13;;;2.63;;
10063;SDS011;5071;52.360;13.134;2023-03-01T21:35:42;5.30;;;3.30;;
10063;SDS011;5071;52.360;13.134;2023-03-01T21:40:44;5.07;;;2.70;;
10063;SDS011;5071;52.360;13.134;2023-03-01T21:45:48;6.70;;;3.03;;
10063;SDS011;5071;52.360;13.134;2023-03-01T21:50:53;5.10;;;2.73;;
10063;SDS011;5071;52.360;13.134;2023-03-01T21:55:57;3.70;;;2.53;;
10063;SDS011;5071;52.360;13.134;2023-03-01T22:01:05;4.13;;;2.90;;
10063;SDS011;5071;52.360;13.134;2023-03-01T22:06:10;7.53;;;3.33;;
10063;SDS011;5071;52.360;13.134;2023-03-01T22:11:13;4.30;;;2.60;;
10063;SDS011;5071;52.360;13.134;2023-03-01T22:16:18;3.63;;;2.40;;
10063;SDS011;5071;52.360;13.134;2023-03-01T22:21:22;5.57;;;2.70;;
10063;SDS011;5071;52.360;13.134;2023-03-01T22:26:28;4.87;;;3.30;;
10063;SDS011;5071;52.360;13.134;2023-03-01T22:31:33;7.70;;;3.57;;
10063;SDS011;5071;52.360;13.134;2023-03-01T22:36:36;4.50;;;2.90;;
10063;SDS011;5071;52.360;13.134;2023-03-01T22:41:39;5.73;;;2.97;;
10063;SDS011;5071;52.360;13.134;2023-03-01T22:46:44;5.13;;;3.07;;
10063;SDS011;5071;52.360;13.134;2023-03-01T22:51:47;3.73;;;2.27;;
10063;SDS011;5071;52.360;13.134;2023-03-01T22:56:49;6.27;;;2.70;;
10063;SDS011;5071;52.360;13.134;2023-03-01T23:01:53;5.30;;;3.10;;
10063;SDS011;5071;52.360;13.134;2023-03-01T23:06:55;5.80;;;3.10;;
10063;SDS011;5071;52.360;13.134;2023-03-01T23:11:58;7.00;;;2.40;;
10063;SDS011;5071;52.360;13.134;2023-03-01T23:17:03;3.37;;;2.13;;
10063;SDS011;5071;52.360;13.134;2023-03-01T23:22:05;4.87;;;2.20;;
10063;SDS011;5071;52.360;13.134;2023-03-01T23:27:07;4.10;;;2.37;;
10063;SDS011;5071;52.360;13.134;2023-03-01T23:32:11;4.73;;;2.30;;
10063;SDS011;5071;52.360;13.134;2023-03-01T23:37:13;7.00;;;2.70;;
10063;SDS011;5071;52.360;13.134;2023-03-01T23:42:16;3.37;;;2.53;;
10063;SDS011;5071;52.360;13.134;2023-03-01T23:47:19;5.93;;;3.10;;
10063;SDS011;5071;52.360;13.134;2023-03-01T23:52:21;4.03;;;2.47;;
10063;SDS011;5071;52.360;13.134;2023-03-01T23:57:23;4.80;;;2.23;;
